sensor_id;sensor_type;location;lat;lon;timestamp;pressure;altitude;pressure_sealevel;temperature;humidity
71476;BME280;59286;59.274;17.974;2023-05-07T00:01:47;102626.75;;;-0.29;79.58
71476;BME280;59286;59.274;17.974;2023-05-07T00:04:13;102631.00;;;-0.36;80.75
71476;BME280;59286;59.274;17.974;2023-05-07T00:06:38;102637.69;;;-0.27;79.24
71476;BME280;59286;59.274;17.974;2023-05-07T00:09:05;102592.19;;;-0.57;80.14
71476;BME280;59286;59.274;17.974;2023-05-07T00:11:30;102620.31;;;-0.47;79.83
71476;BME280;59286;59.274;17.974;2023-05-07T00:13:56;102622.25;;;-0.49;80.15
71476;BME280;59286;59.274;17.974;2023-05-07T00:16:21;102679.31;;;-0.15;80.52
71476;BME280;59286;59.274;17.974;2023-05-07T00:18:47;102614.00;;;-0.67;80.92
71476;BME280;59286;59.274;17.974;2023-05-07T00:21:12;102614.00;;;-0.67;81.67
71476;BME280;59286;59.274;17.974;2023-05-07T00:23:38;102631.78;;;-0.58;81.26
71476;BME280;59286;59.274;17.974;2023-05-07T00:26:04;102677.03;;;-0.33;81.48
71476;BME280;59286;59.274;17.974;2023-05-07T00:28:29;102598.59;;;-0.75;79.98
71476;BME280;59286;59.274;17.974;2023-05-07T00:30:55;102609.00;;;-0.69;80.15
71476;BME280;59286;59.274;17.974;2023-05-07T00:33:20;102583.38;;;-0.85;80.15
71476;BME280;59286;59.274;17.974;2023-05-07T00:35:46;102583.00;;;-0.82;79.66
71476;BME280;59286;59.274;17.974;2023-05-07T00:38:12;102669.94;;;-0.31;79.81
71476;BME280;59286;59.274;17.974;2023-05-07T00:40:37;102622.50;;;-0.67;81.00
71476;BME280;59286;59.274;17.974;2023-05-07T00:43:03;102622.72;;;-0.76;80.89
71476;BME280;59286;59.274;17.974;2023-05-07T00:45:29;102670.97;;;-0.40;80.85
71476;BME280;59286;59.274;17.974;2023-05-07T00:47:59;102663.28;;;-0.48;80.73
71476;BME280;59286;59.274;17.974;2023-05-07T00:50:26;102614.25;;;-0.85;82.26
71476;BME280;59286;59.274;17.974;2023-05-07T00:52:52;102617.81;;;-0.86;82.86
71476;BME280;59286;59.274;17.974;2023-05-07T00:55:18;102620.59;;;-0.95;82.73
71476;BME280;59286;59.274;17.974;2023-05-07T00:57:44;102639.78;;;-0.75;82.14
71476;BME280;59286;59.274;17.974;2023-05-07T01:00:11;102632.69;;;-0.73;81.30
71476;BME280;59286;59.274;17.974;2023-05-07T01:02:40;102621.47;;;-0.80;81.18
71476;BME280;59286;59.274;17.974;2023-05-07T01:05:08;102649.88;;;-0.66;82.28
71476;BME280;59286;59.274;17.974;2023-05-07T01:07:34;102670.09;;;-0.55;82.73
71476;BME280;59286;59.274;17.974;2023-05-07T01:10:00;102677.13;;;-0.49;81.17
71476;BME280;59286;59.274;17.974;2023-05-07T01:12:26;102643.44;;;-0.70;81.69
71476;BME280;59286;59.274;17.974;2023-05-07T01:14:53;102596.97;;;-0.99;81.45
71476;BME280;59286;59.274;17.974;2023-05-07T01:17:18;102596.84;;;-1.06;81.60
71476;BME280;59286;59.274;17.974;2023-05-07T01:19:44;102623.38;;;-1.05;82.53
71476;BME280;59286;59.274;17.974;2023-05-07T01:22:10;102672.06;;;-0.65;82.00
71476;BME280;59286;59.274;17.974;2023-05-07T01:24:37;102679.00;;;-0.65;82.40
71476;BME280;59286;59.274;17.974;2023-05-07T01:27:03;102601.38;;;-1.16;82.63
71476;BME280;59286;59.274;17.974;2023-05-07T01:29:29;102629.47;;;-1.06;83.43
71476;BME280;59286;59.274;17.974;2023-05-07T01:31:57;102676.00;;;-0.77;82.49
71476;BME280;59286;59.274;17.974;2023-05-07T01:34:25;102682.41;;;-0.73;81.86
71476;BME280;59286;59.274;17.974;2023-05-07T01:36:53;102636.56;;;-1.08;81.62
71476;BME280;59286;59.274;17.974;2023-05-07T01:39:22;102624.84;;;-1.11;82.89
71476;BME280;59286;59.274;17.974;2023-05-07T01:41:48;102669.59;;;-0.89;83.08
71476;BME280;59286;59.274;17.974;2023-05-07T01:44:14;102669.50;;;-0.95;82.87
71476;BME280;59286;59.274;17.974;2023-05-07T01:46:40;102681.06;;;-0.91;84.33
71476;BME280;59286;59.274;17.974;2023-05-07T01:49:06;102650.25;;;-1.16;85.24
71476;BME280;59286;59.274;17.974;2023-05-07T01:51:31;102624.88;;;-1.27;85.17
71476;BME280;59286;59.274;17.974;2023-05-07T01:53:58;102614.19;;;-1.38;84.33
71476;BME280;59286;59.274;17.974;2023-05-07T01:56:24;102630.84;;;-1.26;84.56
71476;BME280;59286;59.274;17.974;2023-05-07T01:58:49;102658.59;;;-1.06;84.70
71476;BME280;59286;59.274;17.974;2023-05-07T02:01:16;102687.94;;;-0.84;84.77
71476;BME280;59286;59.274;17.974;2023-05-07T02:03:41;102610.44;;;-1.28;84.19
71476;BME280;59286;59.274;17.974;2023-05-07T02:06:07;102697.88;;;-0.73;83.27
71476;BME280;59286;59.274;17.974;2023-05-07T02:08:32;102699.63;;;-0.73;83.98
71476;BME280;59286;59.274;17.974;2023-05-07T02:10:57;102637.88;;;-1.12;82.69
71476;BME280;59286;59.274;17.974;2023-05-07T02:13:23;102678.69;;;-1.01;83.22
71476;BME280;59286;59.274;17.974;2023-05-07T02:15:49;102636.28;;;-1.21;83.20
71476;BME280;59286;59.274;17.974;2023-05-07T02:18:16;102659.41;;;-1.13;84.02
71476;BME280;59286;59.274;17.974;2023-05-07T02:20:42;102632.66;;;-1.35;82.96
71476;BME280;59286;59.274;17.974;2023-05-07T02:23:07;102696.00;;;-0.95;84.03
71476;BME280;59286;59.274;17.974;2023-05-07T02:25:33;102704.72;;;-0.96;84.97
71476;BME280;59286;59.274;17.974;2023-05-07T02:27:58;102690.84;;;-0.95;85.29
71476;BME280;59286;59.274;17.974;2023-05-07T02:30:24;102648.53;;;-1.23;84.79
71476;BME280;59286;59.274;17.974;2023-05-07T02:32:50;102639.56;;;-1.35;83.94
71476;BME280;59286;59.274;17.974;2023-05-07T02:35:15;102663.59;;;-1.12;84.89
71476;BME280;59286;59.274;17.974;2023-05-07T02:37:41;102649.84;;;-1.35;85.60
71476;BME280;59286;59.274;17.974;2023-05-07T02:40:06;102695.06;;;-0.94;86.39
71476;BME280;59286;59.274;17.974;2023-05-07T02:42:32;102717.09;;;-0.91;86.05
71476;BME280;59286;59.274;17.974;2023-05-07T02:44:57;102666.81;;;-1.10;85.40
71476;BME280;59286;59.274;17.974;2023-05-07T02:47:23;102658.78;;;-1.15;84.97
71476;BME280;59286;59.274;17.974;2023-05-07T02:49:48;102621.56;;;-1.35;84.43
71476;BME280;59286;59.274;17.974;2023-05-07T02:52:14;102618.69;;;-1.40;84.96
71476;BME280;59286;59.274;17.974;2023-05-07T02:54:39;102678.22;;;-1.05;84.41
71476;BME280;59286;59.274;17.974;2023-05-07T02:57:04;102618.69;;;-1.40;84.70
71476;BME280;59286;59.274;17.974;2023-05-07T02:59:30;102657.19;;;-1.16;84.74
71476;BME280;59286;59.274;17.974;2023-05-07T03:01:55;102636.66;;;-1.32;84.95
71476;BME280;59286;59.274;17.974;2023-05-07T03:04:20;102711.09;;;-0.84;84.94
71476;BME280;59286;59.274;17.974;2023-05-07T03:06:46;102676.41;;;-1.04;83.90
71476;BME280;59286;59.274;17.974;2023-05-07T03:09:11;102633.44;;;-1.34;83.60
71476;BME280;59286;59.274;17.974;2023-05-07T03:11:37;102638.56;;;-1.26;83.82
71476;BME280;59286;59.274;17.974;2023-05-07T03:14:02;102641.44;;;-1.21;83.60
71476;BME280;59286;59.274;17.974;2023-05-07T03:16:27;102620.56;;;-1.26;83.70
71476;BME280;59286;59.274;17.974;2023-05-07T03:18:53;102676.22;;;-0.94;83.06
71476;BME280;59286;59.274;17.974;2023-05-07T03:21:18;102691.06;;;-0.66;83.75
71476;BME280;59286;59.274;17.974;2023-05-07T03:23:44;102695.88;;;-0.63;85.09
71476;BME280;59286;59.274;17.974;2023-05-07T03:26:10;102675.94;;;-0.69;83.95
71476;BME280;59286;59.274;17.974;2023-05-07T03:28:35;102641.63;;;-0.84;83.74
71476;BME280;59286;59.274;17.974;2023-05-07T03:31:00;102669.63;;;-0.58;83.69
71476;BME280;59286;59.274;17.974;2023-05-07T03:33:26;102707.94;;;-0.33;85.77
71476;BME280;59286;59.274;17.974;2023-05-07T03:35:52;102674.38;;;-0.47;85.23
71476;BME280;59286;59.274;17.974;2023-05-07T03:38:18;102669.00;;;-0.38;85.58
71476;BME280;59286;59.274;17.974;2023-05-07T03:40:43;102629.84;;;-0.56;84.82
71476;BME280;59286;59.274;17.974;2023-05-07T03:43:09;102686.25;;;-0.16;84.82
71476;BME280;59286;59.274;17.974;2023-05-07T03:45:35;102709.53;;;0.14;84.87
71476;BME280;59286;59.274;17.974;2023-05-07T03:48:01;102612.66;;;-0.41;86.08
71476;BME280;59286;59.274;17.974;2023-05-07T03:50:26;102644.84;;;-0.14;86.29
71476;BME280;59286;59.274;17.974;2023-05-07T03:52:51;102656.19;;;-0.01;86.32
71476;BME280;59286;59.274;17.974;2023-05-07T03:55:17;102655.41;;;0.14;86.14
71476;BME280;59286;59.274;17.974;2023-05-07T03:57:43;102665.84;;;0.35;85.25
71476;BME280;59286;59.274;17.974;2023-05-07T04:00:09;102652.25;;;0.41;85.37
71476;BME280;59286;59.274;17.974;2023-05-07T04:02:34;102657.69;;;0.60;85.39
71476;BME280;59286;59.274;17.974;2023-05-07T04:04:59;102667.28;;;0.81;85.38
71476;BME280;59286;59.274;17.974;2023-05-07T04:07:25;102631.72;;;0.76;84.37
71476;BME280;59286;59.274;17.974;2023-05-07T04:09:51;102648.47;;;1.02;84.31
71476;BME280;59286;59.274;17.974;2023-05-07T04:12:16;102691.06;;;1.41;83.93
71476;BME280;59286;59.274;17.974;2023-05-07T04:14:41;102658.03;;;1.37;83.63
71476;BME280;59286;59.274;17.974;2023-05-07T04:17:07;102664.56;;;1.54;83.25
71476;BME280;59286;59.274;17.974;2023-05-07T04:19:34;102691.72;;;1.85;83.15
71476;BME280;59286;59.274;17.974;2023-05-07T04:22:00;102666.06;;;1.84;82.70
71476;BME280;59286;59.274;17.974;2023-05-07T04:24:26;102646.63;;;1.94;82.55
71476;BME280;59286;59.274;17.974;2023-05-07T04:26:51;102696.84;;;2.55;81.33
71476;BME280;59286;59.274;17.974;2023-05-07T04:29:17;102690.56;;;2.71;80.76
71476;BME280;59286;59.274;17.974;2023-05-07T04:31:43;102674.50;;;2.82;79.06
71476;BME280;59286;59.274;17.974;2023-05-07T04:34:11;102699.13;;;3.12;78.26
71476;BME280;59286;59.274;17.974;2023-05-07T04:36:39;102671.44;;;3.13;77.84
71476;BME280;59286;59.274;17.974;2023-05-07T04:39:05;102694.47;;;3.42;77.93
71476;BME280;59286;59.274;17.974;2023-05-07T04:41:31;102690.91;;;3.62;77.13
71476;BME280;59286;59.274;17.974;2023-05-07T04:44:00;102690.13;;;3.75;76.28
71476;BME280;59286;59.274;17.974;2023-05-07T04:46:25;102717.72;;;4.02;76.28
71476;BME280;59286;59.274;17.974;2023-05-07T04:48:51;102687.59;;;4.21;76.88
71476;BME280;59286;59.274;17.974;2023-05-07T04:51:17;102690.16;;;4.47;75.54
71476;BME280;59286;59.274;17.974;2023-05-07T04:53:42;102708.47;;;4.78;74.47
71476;BME280;59286;59.274;17.974;2023-05-07T04:56:08;102679.94;;;4.71;74.02
71476;BME280;59286;59.274;17.974;2023-05-07T04:58:33;102677.25;;;4.98;74.58
71476;BME280;59286;59.274;17.974;2023-05-07T05:00:59;102701.25;;;5.37;72.60
71476;BME280;59286;59.274;17.974;2023-05-07T05:03:25;102687.34;;;5.56;71.99
71476;BME280;59286;59.274;17.974;2023-05-07T05:05:51;102685.25;;;5.71;71.06
71476;BME280;59286;59.274;17.974;2023-05-07T05:08:17;102683.97;;;5.87;70.72
71476;BME280;59286;59.274;17.974;2023-05-07T05:10:43;102702.69;;;6.02;69.39
71476;BME280;59286;59.274;17.974;2023-05-07T05:13:09;102690.16;;;6.17;68.96
71476;BME280;59286;59.274;17.974;2023-05-07T05:15:35;102716.78;;;6.62;68.63
71476;BME280;59286;59.274;17.974;2023-05-07T05:18:00;102722.81;;;6.80;67.15
71476;BME280;59286;59.274;17.974;2023-05-07T05:20:26;102694.56;;;6.77;68.11
71476;BME280;59286;59.274;17.974;2023-05-07T05:22:51;102736.75;;;7.22;66.75
71476;BME280;59286;59.274;17.974;2023-05-07T05:25:17;102729.22;;;7.32;66.05
71476;BME280;59286;59.274;17.974;2023-05-07T05:27:42;102685.13;;;7.13;66.74
71476;BME280;59286;59.274;17.974;2023-05-07T05:30:08;102700.88;;;7.36;66.33
71476;BME280;59286;59.274;17.974;2023-05-07T05:32:33;102705.22;;;7.71;66.33
71476;BME280;59286;59.274;17.974;2023-05-07T05:34:59;102714.66;;;7.84;64.01
71476;BME280;59286;59.274;17.974;2023-05-07T05:37:25;102708.09;;;7.93;64.40
71476;BME280;59286;59.274;17.974;2023-05-07T05:39:50;102719.66;;;7.97;64.70
71476;BME280;59286;59.274;17.974;2023-05-07T05:42:16;102732.38;;;7.94;63.82
71476;BME280;59286;59.274;17.974;2023-05-07T05:44:42;102687.50;;;7.85;64.29
71476;BME280;59286;59.274;17.974;2023-05-07T05:47:08;102691.97;;;7.96;61.08
71476;BME280;59286;59.274;17.974;2023-05-07T05:49:33;102700.34;;;7.98;60.98
71476;BME280;59286;59.274;17.974;2023-05-07T05:51:59;102702.56;;;8.13;61.28
71476;BME280;59286;59.274;17.974;2023-05-07T05:54:24;102705.03;;;8.08;60.27
71476;BME280;59286;59.274;17.974;2023-05-07T05:56:50;102709.47;;;8.19;61.14
71476;BME280;59286;59.274;17.974;2023-05-07T05:59:18;102754.16;;;8.63;60.25
71476;BME280;59286;59.274;17.974;2023-05-07T06:01:44;102683.06;;;8.27;60.40
71476;BME280;59286;59.274;17.974;2023-05-07T06:04:09;102733.38;;;8.80;59.38
71476;BME280;59286;59.274;17.974;2023-05-07T06:06:35;102711.47;;;8.46;58.19
71476;BME280;59286;59.274;17.974;2023-05-07T06:09:00;102707.69;;;8.65;59.90
71476;BME280;59286;59.274;17.974;2023-05-07T06:11:26;102751.94;;;9.18;56.51
71476;BME280;59286;59.274;17.974;2023-05-07T06:13:51;102736.31;;;9.23;57.01
71476;BME280;59286;59.274;17.974;2023-05-07T06:16:16;102687.63;;;8.94;55.54
71476;BME280;59286;59.274;17.974;2023-05-07T06:18:42;102711.19;;;9.22;56.11
71476;BME280;59286;59.274;17.974;2023-05-07T06:21:07;102701.28;;;9.24;55.09
71476;BME280;59286;59.274;17.974;2023-05-07T06:23:33;102700.66;;;9.45;55.09
71476;BME280;59286;59.274;17.974;2023-05-07T06:25:58;102713.13;;;9.71;53.75
71476;BME280;59286;59.274;17.974;2023-05-07T06:28:24;102686.44;;;9.41;53.41
71476;BME280;59286;59.274;17.974;2023-05-07T06:30:49;102698.75;;;9.57;52.06
71476;BME280;59286;59.274;17.974;2023-05-07T06:33:15;102750.16;;;9.92;52.88
71476;BME280;59286;59.274;17.974;2023-05-07T06:35:41;102699.94;;;9.66;52.68
71476;BME280;59286;59.274;17.974;2023-05-07T06:38:06;102698.94;;;9.84;52.54
71476;BME280;59286;59.274;17.974;2023-05-07T06:40:32;102733.28;;;9.54;51.82
71476;BME280;59286;59.274;17.974;2023-05-07T06:42:57;102711.19;;;9.50;50.67
71476;BME280;59286;59.274;17.974;2023-05-07T06:45:23;102723.06;;;9.69;52.32
71476;BME280;59286;59.274;17.974;2023-05-07T06:47:49;102730.09;;;10.14;49.78
71476;BME280;59286;59.274;17.974;2023-05-07T06:50:14;102699.66;;;9.96;48.97
71476;BME280;59286;59.274;17.974;2023-05-07T06:52:41;102723.91;;;10.20;49.27
71476;BME280;59286;59.274;17.974;2023-05-07T06:55:08;102720.28;;;10.42;46.51
71476;BME280;59286;59.274;17.974;2023-05-07T06:57:33;102699.09;;;10.44;49.66
71476;BME280;59286;59.274;17.974;2023-05-07T07:00:02;102713.09;;;10.49;47.55
71476;BME280;59286;59.274;17.974;2023-05-07T07:02:28;102704.91;;;10.46;49.54
71476;BME280;59286;59.274;17.974;2023-05-07T07:04:53;102738.78;;;10.69;49.06
71476;BME280;59286;59.274;17.974;2023-05-07T07:07:19;102742.28;;;10.96;48.22
71476;BME280;59286;59.274;17.974;2023-05-07T07:09:44;102734.16;;;10.98;44.31
71476;BME280;59286;59.274;17.974;2023-05-07T07:12:09;102702.84;;;10.91;44.96
71476;BME280;59286;59.274;17.974;2023-05-07T07:14:35;102715.03;;;11.02;46.68
71476;BME280;59286;59.274;17.974;2023-05-07T07:17:00;102721.84;;;10.98;46.32
71476;BME280;59286;59.274;17.974;2023-05-07T07:19:26;102692.41;;;10.74;46.87
71476;BME280;59286;59.274;17.974;2023-05-07T07:21:51;102726.56;;;11.23;44.61
71476;BME280;59286;59.274;17.974;2023-05-07T07:24:16;102729.94;;;10.97;42.78
71476;BME280;59286;59.274;17.974;2023-05-07T07:26:46;102754.13;;;11.20;42.89
71476;BME280;59286;59.274;17.974;2023-05-07T07:29:20;102691.75;;;11.06;45.67
71476;BME280;59286;59.274;17.974;2023-05-07T07:31:45;102757.31;;;11.49;45.18
71476;BME280;59286;59.274;17.974;2023-05-07T07:34:11;102696.38;;;11.47;46.06
71476;BME280;59286;59.274;17.974;2023-05-07T07:36:36;102745.81;;;11.77;43.43
71476;BME280;59286;59.274;17.974;2023-05-07T07:39:01;102698.78;;;11.48;43.64
71476;BME280;59286;59.274;17.974;2023-05-07T07:41:27;102740.66;;;11.92;44.85
71476;BME280;59286;59.274;17.974;2023-05-07T07:43:52;102738.16;;;12.07;42.21
71476;BME280;59286;59.274;17.974;2023-05-07T07:46:17;102702.22;;;11.81;42.00
71476;BME280;59286;59.274;17.974;2023-05-07T07:48:43;102691.72;;;11.54;40.91
71476;BME280;59286;59.274;17.974;2023-05-07T07:51:08;102696.31;;;11.42;47.07
71476;BME280;59286;59.274;17.974;2023-05-07T07:53:34;102703.09;;;11.64;42.25
71476;BME280;59286;59.274;17.974;2023-05-07T07:55:59;102698.00;;;11.53;41.08
71476;BME280;59286;59.274;17.974;2023-05-07T07:58:24;102704.84;;;11.27;42.51
71476;BME280;59286;59.274;17.974;2023-05-07T08:00:50;102697.72;;;11.49;44.31
71476;BME280;59286;59.274;17.974;2023-05-07T08:03:16;102736.97;;;11.88;42.00
71476;BME280;59286;59.274;17.974;2023-05-07T08:05:42;102739.19;;;12.01;40.34
71476;BME280;59286;59.274;17.974;2023-05-07T08:08:07;102692.97;;;11.73;40.89
71476;BME280;59286;59.274;17.974;2023-05-07T08:10:33;102717.47;;;11.57;40.50
71476;BME280;59286;59.274;17.974;2023-05-07T08:13:03;102707.72;;;11.79;41.75
71476;BME280;59286;59.274;17.974;2023-05-07T08:15:29;102724.25;;;11.75;41.29
71476;BME280;59286;59.274;17.974;2023-05-07T08:17:55;102701.63;;;11.74;43.99
71476;BME280;59286;59.274;17.974;2023-05-07T08:20:22;102712.66;;;11.71;41.31
71476;BME280;59286;59.274;17.974;2023-05-07T08:22:48;102706.16;;;11.78;41.02
71476;BME280;59286;59.274;17.974;2023-05-07T08:25:13;102731.84;;;12.03;40.49
71476;BME280;59286;59.274;17.974;2023-05-07T08:27:38;102689.38;;;11.57;39.36
71476;BME280;59286;59.274;17.974;2023-05-07T08:30:04;102717.97;;;11.81;39.34
71476;BME280;59286;59.274;17.974;2023-05-07T08:32:29;102720.31;;;11.77;39.55
71476;BME280;59286;59.274;17.974;2023-05-07T08:34:55;102721.81;;;12.00;42.37
71476;BME280;59286;59.274;17.974;2023-05-07T08:37:20;102708.19;;;12.03;40.08
71476;BME280;59286;59.274;17.974;2023-05-07T08:39:45;102708.81;;;12.20;41.02
71476;BME280;59286;59.274;17.974;2023-05-07T08:42:12;102688.72;;;11.99;40.38
71476;BME280;59286;59.274;17.974;2023-05-07T08:44:39;102698.75;;;12.07;41.85
71476;BME280;59286;59.274;17.974;2023-05-07T08:47:06;102698.59;;;12.23;41.23
71476;BME280;59286;59.274;17.974;2023-05-07T08:49:33;102680.84;;;12.04;41.24
71476;BME280;59286;59.274;17.974;2023-05-07T08:51:59;102714.97;;;12.35;41.46
71476;BME280;59286;59.274;17.974;2023-05-07T08:54:25;102715.59;;;12.47;41.96
71476;BME280;59286;59.274;17.974;2023-05-07T08:56:51;102707.44;;;12.49;42.64
71476;BME280;59286;59.274;17.974;2023-05-07T08:59:16;102695.09;;;12.13;39.29
71476;BME280;59286;59.274;17.974;2023-05-07T09:01:42;102689.66;;;12.19;42.03
71476;BME280;59286;59.274;17.974;2023-05-07T09:04:07;102714.41;;;12.28;37.18
71476;BME280;59286;59.274;17.974;2023-05-07T09:06:34;102711.25;;;12.26;38.35
71476;BME280;59286;59.274;17.974;2023-05-07T09:09:00;102692.66;;;12.43;42.38
71476;BME280;59286;59.274;17.974;2023-05-07T09:11:26;102696.84;;;12.39;41.23
71476;BME280;59286;59.274;17.974;2023-05-07T09:13:56;102695.28;;;12.38;39.51
71476;BME280;59286;59.274;17.974;2023-05-07T09:16:23;102660.34;;;12.01;39.08
71476;BME280;59286;59.274;17.974;2023-05-07T09:18:52;102694.53;;;12.06;39.82
71476;BME280;59286;59.274;17.974;2023-05-07T09:21:18;102663.16;;;11.89;41.46
71476;BME280;59286;59.274;17.974;2023-05-07T09:23:44;102707.13;;;12.04;38.35
71476;BME280;59286;59.274;17.974;2023-05-07T09:26:09;102679.88;;;11.78;41.37
71476;BME280;59286;59.274;17.974;2023-05-07T09:28:43;102702.44;;;12.06;42.58
71476;BME280;59286;59.274;17.974;2023-05-07T09:31:10;102689.84;;;12.13;39.96
71476;BME280;59286;59.274;17.974;2023-05-07T09:33:35;102676.31;;;11.94;38.64
71476;BME280;59286;59.274;17.974;2023-05-07T09:36:09;102698.00;;;12.11;40.80
71476;BME280;59286;59.274;17.974;2023-05-07T09:38:36;102695.75;;;12.30;41.06
71476;BME280;59286;59.274;17.974;2023-05-07T09:43:35;102686.59;;;12.37;39.87
71476;BME280;59286;59.274;17.974;2023-05-07T09:46:11;102678.44;;;12.39;41.12
71476;BME280;59286;59.274;17.974;2023-05-07T09:48:38;102699.88;;;12.62;39.63
71476;BME280;59286;59.274;17.974;2023-05-07T09:51:11;102674.72;;;12.30;36.50
71476;BME280;59286;59.274;17.974;2023-05-07T09:53:40;102669.91;;;12.22;41.14
71476;BME280;59286;59.274;17.974;2023-05-07T09:56:07;102696.41;;;12.57;41.56
71476;BME280;59286;59.274;17.974;2023-05-07T09:58:33;102681.13;;;12.49;38.45
71476;BME280;59286;59.274;17.974;2023-05-07T10:01:02;102679.78;;;12.41;39.38
71476;BME280;59286;59.274;17.974;2023-05-07T10:03:30;102686.41;;;12.54;38.60
71476;BME280;59286;59.274;17.974;2023-05-07T10:05:58;102690.38;;;12.56;35.69
71476;BME280;59286;59.274;17.974;2023-05-07T10:08:24;102692.19;;;12.51;38.78
71476;BME280;59286;59.274;17.974;2023-05-07T10:10:50;102686.63;;;12.42;42.47
71476;BME280;59286;59.274;17.974;2023-05-07T10:13:18;102662.59;;;12.29;38.01
71476;BME280;59286;59.274;17.974;2023-05-07T10:15:44;102668.09;;;12.22;39.79
71476;BME280;59286;59.274;17.974;2023-05-07T10:18:11;102670.03;;;12.42;39.48
71476;BME280;59286;59.274;17.974;2023-05-07T10:20:37;102675.25;;;12.32;37.92
71476;BME280;59286;59.274;17.974;2023-05-07T10:23:04;102658.16;;;11.88;38.05
71476;BME280;59286;59.274;17.974;2023-05-07T10:25:31;102676.59;;;11.98;40.97
71476;BME280;59286;59.274;17.974;2023-05-07T10:28:02;102675.78;;;12.34;40.12
71476;BME280;59286;59.274;17.974;2023-05-07T10:30:55;102677.09;;;12.31;39.02
71476;BME280;59286;59.274;17.974;2023-05-07T10:33:27;102655.13;;;12.11;39.08
71476;BME280;59286;59.274;17.974;2023-05-07T10:36:01;102682.69;;;12.45;40.76
71476;BME280;59286;59.274;17.974;2023-05-07T10:38:29;102668.16;;;12.32;40.55
71476;BME280;59286;59.274;17.974;2023-05-07T10:40:55;102680.28;;;12.38;41.33
71476;BME280;59286;59.274;17.974;2023-05-07T10:43:21;102677.44;;;12.45;39.37
71476;BME280;59286;59.274;17.974;2023-05-07T10:46:09;102672.16;;;12.45;39.91
71476;BME280;59286;59.274;17.974;2023-05-07T10:49:12;102657.41;;;12.39;41.85
71476;BME280;59286;59.274;17.974;2023-05-07T10:51:32;102661.53;;;12.25;38.89
71476;BME280;59286;59.274;17.974;2023-05-07T10:56:35;102669.28;;;12.05;41.33
71476;BME280;59286;59.274;17.974;2023-05-07T11:01:54;102645.69;;;12.10;40.32
71476;BME280;59286;59.274;17.974;2023-05-07T11:04:20;102668.94;;;12.33;40.71
71476;BME280;59286;59.274;17.974;2023-05-07T11:15:07;102660.78;;;12.86;39.32
71476;BME280;59286;59.274;17.974;2023-05-07T11:17:33;102640.88;;;12.48;39.47
71476;BME280;59286;59.274;17.974;2023-05-07T11:20:00;102656.00;;;12.78;41.49
71476;BME280;59286;59.274;17.974;2023-05-07T11:25:05;102668.41;;;12.83;39.60
71476;BME280;59286;59.274;17.974;2023-05-07T11:27:31;102662.91;;;12.99;40.53
71476;BME280;59286;59.274;17.974;2023-05-07T11:29:57;102660.28;;;12.99;40.00
71476;BME280;59286;59.274;17.974;2023-05-07T11:32:27;102667.09;;;12.95;39.22
71476;BME280;59286;59.274;17.974;2023-05-07T11:34:57;102646.53;;;12.77;41.26
71476;BME280;59286;59.274;17.974;2023-05-07T11:37:24;102664.69;;;12.84;40.93
71476;BME280;59286;59.274;17.974;2023-05-07T11:39:50;102636.50;;;12.74;39.95
71476;BME280;59286;59.274;17.974;2023-05-07T11:42:32;102641.00;;;12.84;40.87
71476;BME280;59286;59.274;17.974;2023-05-07T11:44:58;102627.31;;;12.82;40.86
71476;BME280;59286;59.274;17.974;2023-05-07T11:47:24;102656.00;;;12.78;39.30
71476;BME280;59286;59.274;17.974;2023-05-07T11:49:52;102624.75;;;12.30;38.65
71476;BME280;59286;59.274;17.974;2023-05-07T11:52:21;102657.75;;;12.52;39.79
71476;BME280;59286;59.274;17.974;2023-05-07T11:54:54;102648.56;;;12.60;40.69
71476;BME280;59286;59.274;17.974;2023-05-07T11:57:24;102647.56;;;12.76;40.02
71476;BME280;59286;59.274;17.974;2023-05-07T11:59:56;102640.41;;;12.61;39.72
71476;BME280;59286;59.274;17.974;2023-05-07T12:02:22;102632.13;;;12.33;39.98
71476;BME280;59286;59.274;17.974;2023-05-07T12:04:50;102649.44;;;12.29;39.85
71476;BME280;59286;59.274;17.974;2023-05-07T12:07:15;102639.41;;;12.16;41.55
71476;BME280;59286;59.274;17.974;2023-05-07T12:09:41;102637.59;;;12.21;40.23
71476;BME280;59286;59.274;17.974;2023-05-07T12:12:07;102630.03;;;12.35;40.17
71476;BME280;59286;59.274;17.974;2023-05-07T12:14:32;102624.09;;;12.54;40.51
71476;BME280;59286;59.274;17.974;2023-05-07T12:16:59;102624.38;;;12.63;40.36
71476;BME280;59286;59.274;17.974;2023-05-07T12:19:29;102602.44;;;12.42;40.08
71476;BME280;59286;59.274;17.974;2023-05-07T12:21:55;102589.22;;;12.22;38.61
71476;BME280;59286;59.274;17.974;2023-05-07T12:24:21;102625.41;;;12.05;37.87
71476;BME280;59286;59.274;17.974;2023-05-07T12:26:47;102588.56;;;11.95;39.79
71476;BME280;59286;59.274;17.974;2023-05-07T12:29:12;102623.69;;;12.31;39.58
71476;BME280;59286;59.274;17.974;2023-05-07T12:31:43;102602.06;;;12.14;38.61
71476;BME280;59286;59.274;17.974;2023-05-07T12:34:11;102581.78;;;12.04;39.06
71476;BME280;59286;59.274;17.974;2023-05-07T12:36:39;102650.66;;;12.63;39.16
71476;BME280;59286;59.274;17.974;2023-05-07T12:39:06;102592.91;;;12.21;38.01
71476;BME280;59286;59.274;17.974;2023-05-07T12:41:36;102619.25;;;12.36;38.93
71476;BME280;59286;59.274;17.974;2023-05-07T12:44:16;102646.41;;;12.52;38.63
71476;BME280;59286;59.274;17.974;2023-05-07T12:46:42;102573.59;;;12.01;39.61
71476;BME280;59286;59.274;17.974;2023-05-07T12:49:07;102616.59;;;12.31;40.53
71476;BME280;59286;59.274;17.974;2023-05-07T12:51:35;102597.44;;;12.41;38.40
71476;BME280;59286;59.274;17.974;2023-05-07T12:54:00;102620.59;;;12.44;39.32
71476;BME280;59286;59.274;17.974;2023-05-07T12:56:25;102615.84;;;12.36;37.94
71476;BME280;59286;59.274;17.974;2023-05-07T12:58:51;102604.16;;;12.12;38.04